KSANKPMD

Guest
Details From KSAN - San Diego Intl
To KPMD - PALMDALE RGNL USAF PLT 42
Flight Number -
Tags generated
Created
Modified
Stats Distance 122 nm / 227 km
Max Altitude 8,600 ft / 2,621 m
Waypoints 3
Social Downloads 2
Likes 0
Share VATSIM

Download

Looking for another format? Having issues loading an existing format? Contact us
Advertisement - Login to hide

Notes

Basic altitude profile: - Ascent Rate: 2500ft/min - Ascent Speed: 250kts - Cruise Altitude: 35000ft - Cruise Speed: 420kts - Descent Rate: 1500ft/min - Descent Speed: 250kts Options: - Use NATs: yes - Use PACOTS: yes - Use low airways: yes - Use high airways: yes

Route

KSAN BAYJY KPMD

ID Type Via Altitude Latitude Longitude Leg Dist Tot Dist Heading (true) Name
O KSAN APT - 0 ft / 0 m 32.73356˚ -117.18966˚ - 0 nm - San Diego Intl
BAYJY FIX - 8,600 ft / 2,621 m 34.00735˚ -117.78559˚ 82 nm 82 nm 339° / 338° -
O KPMD APT - 0 ft / 0 m 34.62939˚ -118.08455˚ 40 nm 122 nm 338° / 338° PALMDALE RGNL USAF PLT 42

Altitude Profile

Advertisement - Login to hide

KSAN

Details ICAO KSAN (SAN)
Name San Diego Intl
Region United States
Timezone America/Los_Angeles (UTC-7.0)
Stats Elevation 17 ft / 5 m (AMSL)
Location 32.733556° -117.189658°
Runways 1
Magnetic Variation 11.486° E

METAR

Not found

TAF

KSAN 272337Z 2800/2906 26009KT P6SM SKC FM280200 VRB04KT P6SM SCT015 FM280500 VRB04KT P6SM BKN015 FM281900 28010KT P6SM SKC FM290200 VRB04KT P6SM SCT012 FM290400 VRB04KT P6SM OVC012

Decode

Departure Runways

ID Width Length Bearing (true) Bearing (mag) Surface Threshold Offset Overrun Length
09 200 ft / 61 m 9,387 ft / 2,861 m 106.07° 94.58° Asphalt 699 ft / 213 m 269 ft / 82 m
27 200 ft / 61 m 9,387 ft / 2,861 m 286.08° 274.59° Asphalt 1,811 ft / 552 m 0 ft / 0 m

KPMD

Details ICAO KPMD (PMD)
Name PALMDALE RGNL USAF PLT 42
Region United States
Timezone America/Los_Angeles (UTC-7.0)
Stats Elevation 2,543 ft / 775 m (AMSL)
Location 34.629387° -118.084551°
Runways 2
Magnetic Variation 12.034° E

METAR

Not found

TAF

KPMD 272340Z 2800/2824 26012KT P6SM SKC FM280400 22008KT P6SM SKC FM281400 VRB03KT P6SM SKC FM282100 33004KT P6SM SKC

Decode

Destination Runways

ID Width Length Bearing (true) Bearing (mag) Surface Threshold Offset Overrun Length
04 150 ft / 46 m 11,998 ft / 3,657 m 51.67° 39.64° Concrete 0 ft / 0 m 1,000 ft / 305 m
07 150 ft / 46 m 11,974 ft / 3,650 m 86.16° 74.13° Concrete 0 ft / 0 m 1,000 ft / 305 m
22 150 ft / 46 m 11,998 ft / 3,657 m 231.69° 219.66° Concrete 0 ft / 0 m 1,000 ft / 305 m
25 150 ft / 46 m 11,974 ft / 3,650 m 266.19° 254.16° Concrete 0 ft / 0 m 998 ft / 304 m

Approach Navaids

Runway Type Ident Frequency Range Bearing (true) Bearing (mag) Slope Elevation
25 Localiser IPMD 110.70 MHz 18 nm / 33 km 266.16° 254.13° - 2,543 ft / 775 m (AMSL)
25 Glidescope IPMD 110.70 MHz 10 nm / 19 km 266.18° 254.14° 3.00° 2,543 ft / 775 m (AMSL)

Popular Alternatives